Time;durP1;ratioP1;P1;durP2;ratioP2;P2;SDS_P1;SDS_P2;PMS_P1;PMS_P2;Temp;Humidity;BMP_temperature;BMP_pressure;BME280_temperature;BME280_humidity;BME280_pressure;Samples;Min_cycle;Max_cycle;Signal;HPM_P1;HPM_P2
2022/06/03 00:00:20;;;;;;;10.93;3.08;;;25.50;59.80;;;;;;5073565;28;20016;-73
2022/06/03 00:03:28;;;;;;;11.10;2.95;;;25.50;59.20;;;;;;5055247;28;20052;-73
2022/06/03 00:06:25;;;;;;;12.05;2.95;;;25.60;58.80;;;;;;5073373;28;20021;-73
2022/06/03 00:09:22;;;;;;;15.07;2.95;;;25.50;59.10;;;;;;5073669;28;20112;-73
2022/06/03 00:12:10;;;;;;;11.88;3.00;;;25.40;59.30;;;;;;5073678;28;20063;-74
2022/06/03 00:15:16;;;;;;;12.20;3.22;;;25.30;59.70;;;;;;5073458;28;20372;-73
2022/06/03 00:18:01;;;;;;;10.63;3.20;;;25.30;59.50;;;;;;5073671;28;20436;-73
2022/06/03 00:20:56;;;;;;;9.23;2.83;;;25.30;59.60;;;;;;5073473;28;20029;-73
2022/06/03 00:23:49;;;;;;;9.82;2.90;;;25.30;59.80;;;;;;5073021;28;20025;-73
2022/06/03 00:26:59;;;;;;;11.88;2.72;;;25.20;59.80;;;;;;5072850;28;20028;-73
2022/06/03 00:29:56;;;;;;;11.48;2.65;;;25.20;59.80;;;;;;5072903;28;20115;-73
2022/06/03 00:32:45;;;;;;;9.50;2.72;;;25.20;60.00;;;;;;5073185;28;20023;-73
2022/06/03 00:35:34;;;;;;;11.00;3.17;;;25.20;60.40;;;;;;5072986;28;20078;-73
2022/06/03 00:38:17;;;;;;;17.27;3.30;;;25.20;60.80;;;;;;5073105;28;20040;-73
2022/06/03 00:41:16;;;;;;;10.70;2.97;;;25.20;61.20;;;;;;5073154;28;20109;-73
2022/06/03 00:44:04;;;;;;;11.98;2.88;;;25.20;61.60;;;;;;5073002;28;20055;-73
2022/06/03 00:46:55;;;;;;;10.07;3.30;;;25.20;62.10;;;;;;5073151;28;20103;-73
2022/06/03 00:50:13;;;;;;;10.57;3.10;;;25.10;62.30;;;;;;5072030;28;20053;-73
2022/06/03 00:52:59;;;;;;;11.18;2.40;;;25.10;61.60;;;;;;5030551;28;20041;-72
2022/06/03 00:55:58;;;;;;;7.20;2.17;;;25.20;56.50;;;;;;5030866;28;20355;-73
2022/06/03 00:58:38;;;;;;;9.25;2.03;;;25.30;55.80;;;;;;5030794;28;20037;-73
2022/06/03 01:01:12;;;;;;;6.32;2.22;;;25.40;55.80;;;;;;5013716;28;20052;-74
2022/06/03 01:04:17;;;;;;;6.65;1.95;;;25.30;55.70;;;;;;5030227;28;20547;-72
2022/06/03 01:07:21;;;;;;;11.07;2.92;;;25.20;55.80;;;;;;5013644;28;20064;-73
2022/06/03 01:10:21;;;;;;;10.13;2.58;;;25.10;56.30;;;;;;5013605;28;20099;-73
2022/06/03 01:13:01;;;;;;;9.68;2.30;;;25.00;56.20;;;;;;5029957;28;20069;-72
2022/06/03 01:15:28;;;;;;;10.20;2.00;;;25.00;56.50;;;;;;5030470;28;20041;-72
2022/06/03 01:18:34;;;;;;;6.97;1.90;;;24.90;57.00;;;;;;5029856;28;20034;-73
2022/06/03 01:21:23;;;;;;;;;;;24.80;56.80;;;;;;5030538;28;20100;-73
2022/06/03 01:24:08;;;;;;;5.57;2.13;;;24.80;56.80;;;;;;5030095;28;19940;-72
2022/06/03 01:26:42;;;;;;;5.63;1.95;;;24.80;56.60;;;;;;5030208;28;20048;-73
2022/06/03 01:29:52;;;;;;;8.52;2.17;;;24.90;56.20;;;;;;5072255;28;20036;-72
2022/06/03 01:32:21;;;;;;;8.15;2.15;;;24.90;56.20;;;;;;5072208;28;20024;-73
2022/06/03 01:35:14;;;;;;;8.23;2.05;;;24.90;56.00;;;;;;5053662;28;20366;-72
2022/06/03 01:37:49;;;;;;;7.70;2.25;;;25.00;56.10;;;;;;5055246;28;20122;-72
2022/06/03 01:40:30;;;;;;;8.77;2.30;;;25.00;56.30;;;;;;5072158;28;20029;-72
2022/06/03 01:43:26;;;;;;;7.82;2.40;;;25.00;57.90;;;;;;5072094;28;20074;-72
2022/06/03 01:45:54;;;;;;;6.10;2.22;;;25.00;58.40;;;;;;5071811;28;20040;-73
2022/06/03 01:48:39;;;;;;;10.60;2.40;;;24.90;57.60;;;;;;5071958;28;20173;-72
2022/06/03 01:51:28;;;;;;;6.43;2.10;;;24.80;57.30;;;;;;5071824;28;20049;-72
2022/06/03 01:54:33;;;;;;;6.72;2.47;;;24.90;57.10;;;;;;5072023;28;20024;-72
2022/06/03 01:56:59;;;;;;;7.55;2.65;;;24.90;56.70;;;;;;5071329;28;20044;-72
2022/06/03 01:59:50;;;;;;;10.13;2.92;;;24.80;56.90;;;;;;5071518;28;20108;-73
2022/06/03 02:02:46;;;;;;;9.18;2.75;;;24.80;56.80;;;;;;5077868;28;20118;-72
2022/06/03 02:05:51;;;;;;;5.68;2.90;;;24.80;56.80;;;;;;5078524;28;20036;-72
2022/06/03 02:08:54;;;;;;;12.45;3.30;;;24.70;56.80;;;;;;5035847;28;20143;-72
2022/06/03 02:12:02;;;;;;;7.07;2.28;;;24.70;56.50;;;;;;5035842;28;20488;-73
2022/06/03 02:15:05;;;;;;;10.63;3.03;;;24.60;57.30;;;;;;5036124;28;20030;-72
2022/06/03 02:18:00;;;;;;;6.75;2.67;;;24.60;57.70;;;;;;5036139;28;20037;-73
2022/06/03 02:20:45;;;;;;;12.02;2.38;;;24.60;57.90;;;;;;5036311;28;20025;-73
2022/06/03 02:24:00;;;;;;;7.75;2.35;;;24.60;57.00;;;;;;5036225;28;20029;-73
2022/06/03 02:26:59;;;;;;;11.35;2.72;;;24.60;57.40;;;;;;4977133;28;20045;-73
2022/06/03 02:32:43;;;;;;;6.60;2.33;;;24.50;58.00;;;;;;4976910;28;20459;-73
2022/06/03 02:35:44;;;;;;;8.70;2.90;;;24.50;58.50;;;;;;4977333;28;20026;-73
2022/06/03 02:38:13;;;;;;;7.43;2.60;;;24.50;58.90;;;;;;4968375;28;20081;-73
2022/06/03 02:41:26;;;;;;;7.90;2.80;;;24.40;59.10;;;;;;4976960;28;20420;-73
2022/06/03 02:44:22;;;;;;;9.00;2.60;;;24.40;58.60;;;;;;4919152;29;20035;-72
2022/06/03 02:47:08;;;;;;;10.93;3.20;;;24.40;58.40;;;;;;4919018;29;20450;-73
2022/06/03 02:49:53;;;;;;;14.13;3.78;;;24.40;58.50;;;;;;4918985;29;20112;-73
2022/06/03 02:55:51;;;;;;;9.65;5.00;;;24.40;58.60;;;;;;4919028;29;20430;-73
2022/06/03 02:58:45;;;;;;;9.63;5.70;;;24.40;58.50;;;;;;4919741;29;20055;-72
2022/06/03 03:01:56;;;;;;;8.95;3.90;;;24.40;58.40;;;;;;4919858;29;20535;-73
2022/06/03 03:04:58;;;;;;;13.98;4.47;;;24.40;58.50;;;;;;4962248;28;20154;-72
2022/06/03 03:07:38;;;;;;;12.98;3.88;;;24.60;59.20;;;;;;4977503;28;20034;-72
2022/06/03 03:10:15;;;;;;;10.25;4.20;;;24.60;59.80;;;;;;4977404;28;20142;-72
2022/06/03 03:13:14;;;;;;;10.43;4.88;;;24.50;60.50;;;;;;4974789;28;20515;-72
2022/06/03 03:16:04;;;;;;;14.75;5.35;;;24.30;61.50;;;;;;5049354;28;20036;-73
2022/06/03 03:18:40;;;;;;;15.05;5.53;;;24.20;62.70;;;;;;5075266;28;20033;-73
2022/06/03 03:21:28;;;;;;;14.00;5.93;;;24.10;63.20;;;;;;5075231;28;20070;-73
2022/06/03 03:24:06;;;;;;;15.85;6.53;;;24.00;63.70;;;;;;5075762;28;20341;-73
2022/06/03 03:27:06;;;;;;;10.48;5.03;;;23.90;63.20;;;;;;5076057;28;20024;-73
2022/06/03 03:29:42;;;;;;;15.50;5.65;;;23.90;63.80;;;;;;5075588;28;20064;-72
2022/06/03 03:32:20;;;;;;;15.88;5.28;;;23.90;64.00;;;;;;5075639;28;20425;-72
2022/06/03 03:35:16;;;;;;;10.55;5.18;;;23.80;64.10;;;;;;5076004;28;20044;-73
2022/06/03 03:37:50;;;;;;;14.88;5.45;;;23.80;64.20;;;;;;5075932;28;20505;-72
2022/06/03 03:40:28;;;;;;;14.48;6.15;;;23.80;64.00;;;;;;5075168;28;20025;-72
2022/06/03 03:43:18;;;;;;;11.85;5.75;;;23.80;63.60;;;;;;5075506;28;20024;-72
2022/06/03 03:46:09;;;;;;;11.75;5.32;;;23.80;64.10;;;;;;5074980;28;20486;-72
2022/06/03 03:48:52;;;;;;;11.75;6.05;;;23.70;64.40;;;;;;5057927;28;20044;-72
2022/06/03 03:51:37;;;;;;;15.85;6.30;;;23.70;64.30;;;;;;5075500;28;20021;-72
2022/06/03 03:54:34;;;;;;;12.85;4.55;;;23.70;64.00;;;;;;5075088;28;20493;-73
2022/06/03 03:57:48;;;;;;;9.55;4.30;;;23.80;62.80;;;;;;5074927;28;20476;-72
2022/06/03 04:00:40;;;;;;;16.77;4.30;;;23.70;61.90;;;;;;5033085;28;20477;-72
2022/06/03 04:03:33;;;;;;;19.17;4.30;;;23.80;61.00;;;;;;5033078;28;20084;-73
2022/06/03 04:06:21;;;;;;;7.82;3.95;;;23.80;61.20;;;;;;5033609;28;20048;-73
2022/06/03 04:09:08;;;;;;;11.43;4.00;;;23.90;60.60;;;;;;5033128;28;20497;-73
2022/06/03 04:11:37;;;;;;;13.50;3.80;;;24.00;60.20;;;;;;5033265;28;20029;-73
2022/06/03 04:14:32;;;;;;;9.63;4.05;;;24.00;60.20;;;;;;5032652;28;20060;-73
2022/06/03 04:17:04;;;;;;;10.52;3.85;;;24.10;60.30;;;;;;5032717;28;20037;-73
2022/06/03 04:20:09;;;;;;;12.32;4.53;;;24.20;60.90;;;;;;5033336;28;20057;-72
2022/06/03 04:22:50;;;;;;;14.17;4.63;;;24.20;61.20;;;;;;5033170;28;20046;-73
2022/06/03 04:25:22;;;;;;;13.77;4.22;;;24.30;60.90;;;;;;5032541;28;20263;-74
2022/06/03 04:28:27;;;;;;;13.57;4.45;;;24.40;60.90;;;;;;5016043;28;20067;-72
2022/06/03 04:30:56;;;;;;;;;;;24.50;60.60;;;;;;5033340;28;20057;-73
2022/06/03 04:33:57;;;;;;;9.00;2.85;;;24.60;60.50;;;;;;5032706;28;19909;-73
2022/06/03 04:36:57;;;;;;;15.02;2.83;;;24.80;58.10;;;;;;5063433;28;20036;-73
2022/06/03 04:39:50;;;;;;;10.85;3.00;;;24.90;58.20;;;;;;5074978;28;20028;-73
2022/06/03 04:42:40;;;;;;;8.43;2.22;;;24.80;58.10;;;;;;5074828;28;20043;-73
2022/06/03 04:45:30;;;;;;;11.18;2.72;;;24.80;57.90;;;;;;5074826;28;20031;-72
2022/06/03 04:48:44;;;;;;;8.02;2.88;;;24.90;57.70;;;;;;5074413;28;20020;-73
2022/06/03 04:51:33;;;;;;;7.35;2.80;;;24.90;58.10;;;;;;5032570;28;20037;-73
2022/06/03 04:54:29;;;;;;;7.55;3.03;;;24.90;58.20;;;;;;5031838;28;20037;-72
2022/06/03 04:57:10;;;;;;;9.75;3.00;;;24.90;58.20;;;;;;5032239;28;20041;-72
2022/06/03 05:00:01;;;;;;;9.13;3.00;;;25.00;58.20;;;;;;5032346;28;20022;-72
2022/06/03 05:03:03;;;;;;;12.45;3.20;;;25.50;58.10;;;;;;5031714;28;20047;-73
2022/06/03 05:06:06;;;;;;;10.10;2.80;;;26.30;57.90;;;;;;5032011;28;20444;-73
2022/06/03 05:08:50;;;;;;;10.55;3.00;;;26.90;55.90;;;;;;5032118;28;20086;-72
2022/06/03 05:11:24;;;;;;;11.15;2.83;;;27.20;55.70;;;;;;5031548;28;20048;-74
2022/06/03 05:13:55;;;;;;;13.60;3.05;;;27.50;55.70;;;;;;5032005;28;20040;-73
2022/06/03 05:16:30;;;;;;;8.25;2.80;;;27.80;55.30;;;;;;5031947;28;20477;-73
2022/06/03 05:18:56;;;;;;;12.88;3.17;;;28.40;54.50;;;;;;5032173;28;20497;-73
2022/06/03 05:21:46;;;;;;;;;;;28.90;54.50;;;;;;5031569;28;20072;-74
2022/06/03 05:24:18;;;;;;;10.82;3.47;;;29.20;54.50;;;;;;5031288;28;19916;-73
2022/06/03 05:27:21;;;;;;;15.45;2.85;;;29.50;53.80;;;;;;5037472;28;20036;-73
2022/06/03 05:30:09;;;;;;;14.25;3.10;;;30.50;52.40;;;;;;5072494;28;20390;-73
2022/06/03 05:33:20;;;;;;;15.00;2.60;;;30.90;51.00;;;;;;5072939;28;20063;-73
2022/06/03 05:36:30;;;;;;;10.27;2.75;;;31.70;49.90;;;;;;5072336;28;20029;-73
2022/06/03 05:39:24;;;;;;;10.50;2.80;;;32.70;49.40;;;;;;5054616;28;20381;-73
2022/06/03 05:45:15;;;;;;;9.70;2.80;;;34.90;47.60;;;;;;5073102;28;20388;-74
2022/06/03 05:47:48;;;;;;;14.90;2.80;;;36.70;45.80;;;;;;5072654;28;20085;-75
2022/06/03 05:50:39;;;;;;;12.40;3.20;;;37.10;45.00;;;;;;5072569;28;20559;-74
2022/06/03 05:53:32;;;;;;;8.18;2.60;;;36.80;44.90;;;;;;5072439;28;20020;-73
2022/06/03 05:56:01;;;;;;;13.80;2.92;;;35.00;46.60;;;;;;5071853;28;20059;-73
2022/06/03 05:58:51;;;;;;;11.40;3.00;;;34.10;48.50;;;;;;5053289;28;20445;-74
2022/06/03 06:01:34;;;;;;;7.88;3.17;;;34.50;48.10;;;;;;5053292;28;20036;-73
2022/06/03 06:04:25;;;;;;;10.27;2.92;;;34.50;47.00;;;;;;5071437;28;20087;-74
2022/06/03 06:07:06;;;;;;;10.35;3.10;;;35.00;47.50;;;;;;5053517;28;20128;-74
2022/06/03 06:09:53;;;;;;;9.55;2.70;;;35.20;46.70;;;;;;5072067;28;20025;-75
2022/06/03 06:12:39;;;;;;;10.13;3.20;;;35.60;46.50;;;;;;5071870;28;20403;-73
2022/06/03 06:15:37;;;;;;;11.10;2.90;;;35.70;46.70;;;;;;5071905;28;20112;-75
2022/06/03 06:18:22;;;;;;;8.35;2.80;;;35.80;46.40;;;;;;5071539;28;20527;-73
2022/06/03 06:21:37;;;;;;;11.35;2.95;;;36.20;46.80;;;;;;5072531;28;20031;-74
2022/06/03 06:24:46;;;;;;;20.23;3.50;;;38.70;46.40;;;;;;5013607;28;20101;-74
2022/06/03 06:27:31;;;;;;;14.65;2.88;;;40.70;45.20;;;;;;5030404;28;20040;-74
2022/06/03 06:30:25;;;;;;;14.45;3.10;;;42.00;42.90;;;;;;5030592;28;20084;-75
2022/06/03 06:33:29;;;;;;;14.95;2.78;;;43.30;41.60;;;;;;5030534;28;20032;-75
2022/06/03 06:36:22;;;;;;;10.88;2.28;;;43.90;40.30;;;;;;5030111;28;20034;-75
2022/06/03 06:39:00;;;;;;;8.20;2.53;;;44.20;39.40;;;;;;5030128;28;20521;-75
2022/06/03 06:41:35;;;;;;;11.43;2.20;;;43.90;38.60;;;;;;5030409;28;20037;-74
2022/06/03 06:44:10;;;;;;;7.32;2.13;;;44.10;39.40;;;;;;5030282;28;20485;-73
2022/06/03 06:46:51;;;;;;;11.70;2.13;;;43.90;37.60;;;;;;5030784;28;20036;-74
2022/06/03 06:49:38;;;;;;;8.80;2.42;;;43.70;38.50;;;;;;5017210;28;20122;-74
2022/06/03 06:52:24;;;;;;;13.65;2.90;;;44.40;37.80;;;;;;5033847;28;20139;-74
2022/06/03 06:54:59;;;;;;;15.00;2.70;;;45.00;38.00;;;;;;5058783;28;20036;-75
2022/06/03 06:57:33;;;;;;;14.13;2.63;;;45.00;37.50;;;;;;5075992;28;20043;-75
2022/06/03 07:00:24;;;;;;;8.65;2.50;;;45.00;37.20;;;;;;5076085;28;20032;-75
2022/06/03 07:02:56;;;;;;;11.27;2.50;;;45.20;37.40;;;;;;5075449;28;20094;-73
2022/06/03 07:05:50;;;;;;;10.77;2.42;;;45.60;37.00;;;;;;5075339;28;20082;-74
2022/06/03 07:08:15;;;;;;;;;;;45.20;36.70;;;;;;5075650;28;20033;-74
2022/06/03 07:11:06;;;;;;;12.20;2.47;;;45.00;36.70;;;;;;5075457;28;20274;-73
2022/06/03 07:13:42;;;;;;;8.88;2.78;;;43.50;38.00;;;;;;5075164;28;20024;-74
2022/06/03 07:22:28;;;;;;;14.88;2.67;;;41.90;40.40;;;;;;5075484;28;20109;-75
2022/06/03 07:24:58;;;;;;;12.05;2.65;;;41.30;41.00;;;;;;5075353;28;20020;-74
2022/06/03 07:27:50;;;;;;;11.35;3.10;;;41.00;41.10;;;;;;5075399;28;20101;-74
2022/06/03 07:30:40;;;;;;;15.57;2.83;;;40.50;40.80;;;;;;5067452;28;20051;-75
2022/06/03 07:33:37;;;;;;;12.50;2.90;;;39.80;41.50;;;;;;5074841;28;20129;-74
2022/06/03 07:36:16;;;;;;;10.07;2.85;;;39.20;42.30;;;;;;5075483;28;20031;-76
2022/06/03 07:38:51;;;;;;;12.90;3.20;;;38.90;42.30;;;;;;5075178;28;20460;-76
2022/06/03 07:41:50;;;;;;;9.95;2.75;;;38.70;42.80;;;;;;5056634;28;20028;-77
2022/06/03 07:44:54;;;;;;;13.88;3.60;;;38.30;43.60;;;;;;5074406;28;20407;-77
2022/06/03 07:47:22;;;;;;;9.73;3.15;;;37.90;44.30;;;;;;5074703;28;20048;-76
2022/06/03 07:49:58;;;;;;;9.35;2.80;;;37.40;44.60;;;;;;5074833;28;20025;-76
2022/06/03 07:55:53;;;;;;;14.60;3.08;;;37.10;45.10;;;;;;5030939;28;20043;-77
2022/06/03 07:58:22;;;;;;;14.15;3.22;;;36.80;45.30;;;;;;5030246;28;20125;-77
2022/06/03 08:00:48;;;;;;;18.25;4.25;;;36.90;45.20;;;;;;5014076;28;20092;-77
2022/06/03 08:03:21;;;;;;;11.05;3.70;;;36.60;45.50;;;;;;5030974;28;20556;-78
2022/06/03 08:05:56;;;;;;;16.02;4.07;;;36.30;46.60;;;;;;5030991;28;20049;-76
2022/06/03 08:11:28;;;;;;;16.08;4.13;;;36.10;46.40;;;;;;5030747;28;20044;-76
2022/06/03 08:13:56;;;;;;;18.48;4.18;;;36.30;46.70;;;;;;5031047;28;20120;-76
2022/06/03 08:16:29;;;;;;;12.93;4.65;;;36.50;46.10;;;;;;5030727;28;20026;-76
2022/06/03 08:19:20;;;;;;;14.93;4.72;;;36.70;46.50;;;;;;5032478;28;20041;-76
2022/06/03 08:21:52;;;;;;;20.23;3.92;;;37.00;46.30;;;;;;5032324;28;20080;-77
2022/06/03 08:24:25;;;;;;;17.50;4.18;;;37.00;45.50;;;;;;5032280;28;20128;-76
2022/06/03 08:27:16;;;;;;;13.50;3.70;;;36.80;45.50;;;;;;5031842;28;20033;-76
2022/06/03 08:29:59;;;;;;;9.80;3.45;;;36.00;46.30;;;;;;5031872;28;20030;-76
2022/06/03 08:32:32;;;;;;;11.85;3.72;;;36.10;46.10;;;;;;5062861;28;20032;-76
2022/06/03 08:35:00;;;;;;;11.18;3.60;;;36.00;46.80;;;;;;5073806;28;20554;-77
2022/06/03 08:37:35;;;;;;;12.68;3.97;;;36.20;46.30;;;;;;5073045;28;20085;-76
2022/06/03 08:40:24;;;;;;;14.43;3.50;;;36.60;46.30;;;;;;5055391;28;20028;-76
2022/06/03 08:43:11;;;;;;;11.55;3.33;;;36.90;45.60;;;;;;5073888;28;20354;-75
2022/06/03 08:45:56;;;;;;;16.67;3.75;;;36.90;45.20;;;;;;5073280;28;20040;-76
2022/06/03 08:48:28;;;;;;;17.17;3.17;;;36.70;45.30;;;;;;5073898;28;20025;-75
2022/06/03 08:51:31;;;;;;;13.75;3.10;;;36.80;46.00;;;;;;5073064;28;20418;-75
2022/06/03 08:54:26;;;;;;;24.33;3.63;;;36.70;44.50;;;;;;5073225;28;20021;-76
2022/06/03 08:56:57;;;;;;;12.73;2.95;;;36.70;45.20;;;;;;5072814;28;20171;-75
2022/06/03 08:59:51;;;;;;;15.77;3.22;;;36.50;45.50;;;;;;5072586;28;20426;-75
2022/06/03 09:02:44;;;;;;;10.02;3.33;;;36.30;46.00;;;;;;5072830;28;20024;-75
2022/06/03 09:05:20;;;;;;;11.80;2.92;;;36.30;45.60;;;;;;5072965;28;20033;-76
2022/06/03 09:08:00;;;;;;;9.40;2.60;;;36.40;45.90;;;;;;5072961;28;20063;-75
2022/06/03 09:10:52;;;;;;;11.90;2.70;;;36.50;45.20;;;;;;5071917;28;20092;-76
2022/06/03 09:13:21;;;;;;;11.68;2.67;;;36.50;45.00;;;;;;5072322;28;20119;-75
2022/06/03 09:15:49;;;;;;;12.93;2.45;;;36.50;44.70;;;;;;5072942;28;20024;-75
2022/06/03 09:18:45;;;;;;;7.43;2.10;;;36.60;44.90;;;;;;5072376;28;20049;-75
2022/06/03 09:21:13;;;;;;;10.10;2.25;;;36.10;44.60;;;;;;5071323;28;20036;-74
2022/06/03 09:23:47;;;;;;;9.48;2.28;;;35.70;45.00;;;;;;5072629;28;20466;-75
2022/06/03 09:26:26;;;;;;;10.95;2.40;;;35.70;44.40;;;;;;5072565;28;20028;-75
2022/06/03 09:28:53;;;;;;;6.80;2.40;;;35.60;44.70;;;;;;5072386;28;20051;-75
2022/06/03 09:31:21;;;;;;;10.75;2.45;;;35.60;45.20;;;;;;5072326;28;20103;-75
2022/06/03 09:33:47;;;;;;;10.20;2.53;;;35.50;46.00;;;;;;5075701;28;20104;-76
2022/06/03 09:36:18;;;;;;;10.48;2.58;;;35.60;46.50;;;;;;5075942;28;20031;-76
2022/06/03 09:38:50;;;;;;;7.57;2.22;;;35.30;46.20;;;;;;5072603;28;20400;-75
2022/06/03 09:41:20;;;;;;;11.32;2.33;;;35.10;45.70;;;;;;5072481;28;20063;-75
2022/06/03 09:43:50;;;;;;;10.18;2.40;;;34.90;45.80;;;;;;5071807;28;20120;-75
2022/06/03 09:46:17;;;;;;;10.98;2.83;;;34.80;46.90;;;;;;5072425;28;20020;-75
2022/06/03 09:48:44;;;;;;;6.05;2.17;;;34.90;46.80;;;;;;5071815;28;20052;-75
2022/06/03 09:51:55;;;;;;;12.80;3.03;;;34.60;47.30;;;;;;5072210;28;20017;-75
2022/06/03 09:54:32;;;;;;;11.77;3.20;;;34.70;47.60;;;;;;5072245;28;20166;-75
2022/06/03 09:57:39;;;;;;;8.98;2.17;;;34.70;47.70;;;;;;5071490;28;20130;-77
2022/06/03 10:00:11;;;;;;;12.55;2.42;;;34.70;46.30;;;;;;5071007;28;20039;-77
2022/06/03 10:02:37;;;;;;;16.38;2.58;;;34.50;46.90;;;;;;5072110;28;20041;-77
2022/06/03 10:05:05;;;;;;;13.95;2.88;;;34.50;46.30;;;;;;5072069;28;20104;-76
2022/06/03 10:07:32;;;;;;;14.90;2.97;;;34.30;46.20;;;;;;5071554;28;20024;-76
2022/06/03 10:12:50;;;;;;;18.65;2.50;;;34.50;46.70;;;;;;5042770;28;20021;-76
2022/06/03 10:15:53;;;;;;;7.65;1.80;;;34.30;46.50;;;;;;5053816;28;20021;-76
2022/06/03 10:18:39;;;;;;;15.00;2.78;;;34.20;46.30;;;;;;5069174;28;20484;-76
2022/06/03 10:21:05;;;;;;;12.27;2.33;;;34.10;45.70;;;;;;5072102;28;20272;-74
2022/06/03 10:23:35;;;;;;;;;;;33.80;45.80;;;;;;5076031;28;20095;-75
2022/06/03 10:26:04;;;;;;;15.02;2.55;;;34.00;46.60;;;;;;5075513;28;19912;-76
2022/06/03 10:28:36;;;;;;;7.05;1.95;;;34.00;46.70;;;;;;5057628;28;20384;-76
2022/06/03 10:31:12;;;;;;;8.68;2.03;;;34.20;46.00;;;;;;5075677;28;20031;-75
2022/06/03 10:33:39;;;;;;;10.40;1.95;;;34.20;45.90;;;;;;5075738;28;20514;-75
2022/06/03 10:36:05;;;;;;;;;;;34.20;44.70;;;;;;5075646;28;20449;-75
2022/06/03 10:38:36;;;;;;;10.02;1.85;;;34.20;44.80;;;;;;5074996;28;20069;-75
2022/06/03 10:41:09;;;;;;;10.00;1.90;;;34.00;44.10;;;;;;5075228;28;20065;-75
2022/06/03 10:43:38;;;;;;;8.57;1.60;;;34.00;44.60;;;;;;5075209;28;20437;-75
2022/06/03 10:46:13;;;;;;;9.10;1.80;;;34.00;45.30;;;;;;5075248;28;20107;-76
2022/06/03 10:48:40;;;;;;;6.70;1.75;;;34.10;44.60;;;;;;5075445;28;20064;-75
2022/06/03 11:02:38;;;;;;;10.82;2.22;;;34.10;44.90;;;;;;5074286;28;20051;-76
2022/06/03 11:05:20;;;;;;;12.50;2.15;;;33.80;45.00;;;;;;5074880;28;20046;-76
2022/06/03 11:07:58;;;;;;;10.38;2.05;;;34.00;44.10;;;;;;5075110;28;20044;-76
2022/06/03 11:10:31;;;;;;;4.80;1.40;;;34.20;43.50;;;;;;5075326;28;20016;-76
2022/06/03 11:13:03;;;;;;;7.32;1.63;;;34.40;41.80;;;;;;5074807;28;20048;-74
2022/06/03 11:15:44;;;;;;;8.23;1.85;;;34.20;43.00;;;;;;5074625;28;20032;-74
2022/06/03 11:18:24;;;;;;;10.25;2.30;;;34.10;43.20;;;;;;5075363;28;20041;-73
2022/06/03 11:20:52;;;;;;;6.30;1.67;;;34.20;42.50;;;;;;5074721;28;20083;-74
2022/06/03 11:23:19;;;;;;;8.10;1.67;;;34.20;41.80;;;;;;5074935;28;20055;-73
2022/06/03 11:25:56;;;;;;;7.53;1.67;;;34.30;41.50;;;;;;5056664;28;20039;-75
2022/06/03 11:28:53;;;;;;;5.68;1.70;;;34.50;42.30;;;;;;5056456;28;20020;-74
2022/06/03 11:31:27;;;;;;;6.47;1.90;;;34.60;42.60;;;;;;5055967;28;20036;-74
2022/06/03 11:34:01;;;;;;;10.80;1.98;;;34.80;42.40;;;;;;5074353;28;20029;-74
2022/06/03 11:36:35;;;;;;;11.05;2.03;;;34.80;42.00;;;;;;5056732;28;20465;-75
2022/06/03 11:39:33;;;;;;;8.20;1.67;;;34.80;42.30;;;;;;5075270;28;20459;-74
2022/06/03 11:42:18;;;;;;;8.60;1.58;;;35.00;41.00;;;;;;5066652;28;20382;-74
2022/06/03 11:44:50;;;;;;;5.07;1.47;;;35.00;41.20;;;;;;5074800;28;20032;-74
2022/06/03 11:47:30;;;;;;;10.27;1.60;;;35.00;40.60;;;;;;5075337;28;20048;-75
2022/06/03 11:49:57;;;;;;;8.07;1.33;;;34.80;41.10;;;;;;5074893;28;20377;-75
2022/06/03 11:52:23;;;;;;;7.63;1.90;;;34.90;41.70;;;;;;5074804;28;20020;-74
2022/06/03 11:54:54;;;;;;;6.05;1.50;;;34.90;41.20;;;;;;5075166;28;20032;-74
2022/06/03 11:57:21;;;;;;;5.65;1.48;;;35.00;40.70;;;;;;5074968;28;20028;-74
2022/06/03 11:59:53;;;;;;;16.58;2.05;;;35.10;41.00;;;;;;5073959;28;20021;-75
2022/06/03 12:02:48;;;;;;;6.50;1.30;;;35.20;40.90;;;;;;5073716;28;20115;-75
2022/06/03 12:05:21;;;;;;;;;;;35.20;40.50;;;;;;5075684;28;20517;-74
2022/06/03 12:08:13;;;;;;;7.68;1.40;;;35.20;39.50;;;;;;5074481;28;19905;-75
2022/06/03 12:10:43;;;;;;;9.25;1.42;;;35.00;38.30;;;;;;5075021;28;20052;-74
2022/06/03 12:13:15;;;;;;;6.78;1.50;;;35.20;40.20;;;;;;5074497;28;20036;-75
2022/06/03 12:15:53;;;;;;;8.60;1.75;;;35.10;40.20;;;;;;5074361;28;20020;-74
2022/06/03 12:18:35;;;;;;;8.77;1.77;;;35.20;40.80;;;;;;5074726;28;20033;-74
2022/06/03 12:21:35;;;;;;;7.88;1.40;;;35.20;40.70;;;;;;5074004;28;20384;-73
2022/06/03 12:24:24;;;;;;;5.85;1.50;;;35.00;39.90;;;;;;5056069;28;20078;-74
2022/06/03 12:26:51;;;;;;;10.23;2.03;;;34.90;40.50;;;;;;5074263;28;20024;-74
2022/06/03 12:29:28;;;;;;;5.53;1.60;;;35.00;41.90;;;;;;5074540;28;20377;-75
2022/06/03 12:31:55;;;;;;;11.32;1.52;;;34.80;40.80;;;;;;5074678;28;20021;-75
2022/06/03 12:34:27;;;;;;;8.60;1.55;;;34.70;41.50;;;;;;5074662;28;20024;-75
2022/06/03 12:37:22;;;;;;;7.75;1.50;;;34.80;41.60;;;;;;5074213;28;20415;-73
2022/06/03 12:40:26;;;;;;;9.35;1.70;;;34.90;41.50;;;;;;5074396;28;20032;-74
2022/06/03 12:42:52;;;;;;;11.18;1.80;;;35.00;41.10;;;;;;5074553;28;20066;-74
2022/06/03 12:45:26;;;;;;;8.68;1.63;;;35.00;41.30;;;;;;5073833;28;20059;-74
2022/06/03 12:47:55;;;;;;;7.00;1.67;;;35.00;39.80;;;;;;5073965;28;20059;-75
2022/06/03 12:50:23;;;;;;;3.92;1.27;;;34.80;41.00;;;;;;5073468;28;20049;-75
2022/06/03 12:52:53;;;;;;;8.73;1.67;;;35.00;39.20;;;;;;5073629;28;20033;-75
2022/06/03 12:55:26;;;;;;;7.43;1.83;;;35.20;39.10;;;;;;5073987;28;20036;-74
2022/06/03 12:58:04;;;;;;;5.30;1.40;;;35.30;39.80;;;;;;5073562;28;20123;-75
2022/06/03 13:00:32;;;;;;;6.30;1.77;;;35.30;40.60;;;;;;5073784;28;20020;-75
2022/06/03 13:03:05;;;;;;;7.00;1.73;;;35.30;40.20;;;;;;5073048;28;20055;-74
2022/06/03 13:05:51;;;;;;;6.35;1.50;;;35.30;41.60;;;;;;5073482;28;20024;-74
2022/06/03 13:08:29;;;;;;;6.70;1.40;;;35.30;39.50;;;;;;5072851;28;20420;-74
2022/06/03 13:11:03;;;;;;;13.52;2.13;;;35.40;41.30;;;;;;5072814;28;20029;-75
2022/06/03 13:13:29;;;;;;;11.77;1.98;;;35.30;41.30;;;;;;5073278;28;20468;-72
2022/06/03 13:16:38;;;;;;;8.75;1.60;;;35.40;41.10;;;;;;5073117;28;20032;-75
2022/06/03 13:19:20;;;;;;;7.18;1.90;;;35.30;41.30;;;;;;5072637;28;20049;-75
2022/06/03 13:22:00;;;;;;;8.00;2.05;;;35.20;43.20;;;;;;5073703;28;20016;-74
2022/06/03 13:25:08;;;;;;;8.32;2.00;;;35.20;44.10;;;;;;5073718;28;20017;-75
2022/06/03 13:27:34;;;;;;;9.18;2.28;;;35.00;43.40;;;;;;5072996;28;20027;-74
2022/06/03 13:30:03;;;;;;;;;;;35.00;43.70;;;;;;5074264;28;20143;-74
2022/06/03 13:32:35;;;;;;;11.13;2.25;;;35.00;44.50;;;;;;5055690;28;20364;-75
2022/06/03 13:35:07;;;;;;;10.45;1.90;;;34.90;44.70;;;;;;5073920;28;20027;-76
2022/06/03 13:37:57;;;;;;;14.77;2.72;;;34.90;44.40;;;;;;5073258;28;20376;-76
2022/06/03 13:40:26;;;;;;;16.60;2.40;;;34.90;44.80;;;;;;5053296;28;20561;-76
2022/06/03 13:42:58;;;;;;;12.45;2.30;;;34.80;45.00;;;;;;5073615;28;20346;-74
2022/06/03 13:45:26;;;;;;;8.50;2.22;;;34.80;45.80;;;;;;5073690;28;20016;-74
2022/06/03 13:47:55;;;;;;;12.18;1.88;;;34.60;46.30;;;;;;5073521;28;20108;-74
2022/06/03 13:50:27;;;;;;;8.95;1.90;;;34.60;47.00;;;;;;5073400;28;20415;-75
2022/06/03 13:52:59;;;;;;;9.73;1.80;;;34.60;47.20;;;;;;5054796;28;20025;-74
2022/06/03 13:55:46;;;;;;;10.00;2.33;;;34.50;47.50;;;;;;5054638;28;20039;-74
2022/06/03 13:58:12;;;;;;;12.80;2.00;;;34.60;47.70;;;;;;5072437;28;20044;-76
2022/06/03 14:00:53;;;;;;;;;;;34.40;47.60;;;;;;5073104;28;20024;-73
2022/06/03 14:03:52;;;;;;;11.68;1.90;;;34.40;47.70;;;;;;5053933;28;19921;-76
2022/06/03 14:06:30;;;;;;;9.85;2.03;;;34.60;47.50;;;;;;5072240;28;20036;-74
2022/06/03 14:09:19;;;;;;;8.18;1.85;;;34.50;46.30;;;;;;5072860;28;20063;-74
2022/06/03 14:12:08;;;;;;;17.33;2.70;;;34.60;47.10;;;;;;5072939;28;20025;-75
2022/06/03 14:15:31;;;;;;;13.75;2.00;;;34.50;45.90;;;;;;5072751;28;20119;-75
2022/06/03 14:17:59;;;;;;;7.40;2.00;;;34.60;45.40;;;;;;5030262;28;20037;-74
2022/06/03 14:20:47;;;;;;;13.15;2.00;;;34.60;47.10;;;;;;5030196;28;20030;-75
2022/06/03 14:23:30;;;;;;;14.52;2.65;;;34.70;46.00;;;;;;5013586;28;20152;-74
2022/06/03 14:26:11;;;;;;;12.13;2.17;;;34.60;46.80;;;;;;5030188;28;20022;-75
2022/06/03 14:28:59;;;;;;;16.65;2.10;;;34.80;46.40;;;;;;5013542;28;20048;-74
2022/06/03 14:32:01;;;;;;;8.93;2.25;;;34.80;45.50;;;;;;5030310;28;20485;-74
2022/06/03 14:34:33;;;;;;;12.32;2.22;;;34.80;44.90;;;;;;5016468;28;20124;-74
2022/06/03 14:37:01;;;;;;;15.05;2.10;;;34.80;45.40;;;;;;5030473;28;20037;-75
2022/06/03 14:39:35;;;;;;;20.30;2.47;;;34.70;45.60;;;;;;5030040;28;20033;-74
2022/06/03 14:42:16;;;;;;;9.43;1.85;;;34.60;45.10;;;;;;5030392;28;20113;-75